Terminal Aerodrome Forecast
Issued by NWS

Home | Current Version | Previous Version | Text Only | Print | Product List | Glossary On
Versions: 1 2 3 4 5 6 7 8 9 10 11 12 13 14 15 16 17 18 19
000
FTUS41 KBTV 040533
TAFRUT
TAF
KRUT 040533Z 0406/0506 12009KT P6SM VCSH SCT015 OVC025
      TEMPO 0406/0410 5SM -SNPL BKN015
     FM041100 22009KT P6SM SCT030 OVC035
     FM041600 27010G18KT P6SM FEW045 SCT090
     FM042300 29008KT P6SM SCT100 BKN200
      AMD LTD TO CLD VIS AND WIND=

USA.gov is the U.S. government's official web portal to all federal, state and local government web resources and services.